Time;durP1;ratioP1;P1;durP2;ratioP2;P2;SDS_P1;SDS_P2;PMS_P1;PMS_P2;Temp;Humidity;BMP_temperature;BMP_pressure;BME280_temperature;BME280_humidity;BME280_pressure;Samples;Min_cycle;Max_cycle;Signal;HPM_P1;HPM_P2
2021/12/02 06:00:14;;;;;;;0.90;0.70;;;6.10;97.20;;;;;;1714040;28;20178;-76
2021/12/02 06:01:05;;;;;;;0.90;0.50;;;6.10;97.20;;;;;;1714011;28;20699;-76
2021/12/02 06:01:57;;;;;;;1.43;0.80;;;6.10;97.20;;;;;;1713217;28;20653;-76
2021/12/02 06:02:48;;;;;;;1.42;0.70;;;6.00;97.20;;;;;;1713876;28;20952;-76
2021/12/02 06:03:40;;;;;;;1.43;0.70;;;6.00;97.20;;;;;;1713468;28;20565;-75
2021/12/02 06:04:31;;;;;;;2.33;0.80;;;6.00;97.20;;;;;;1714038;28;20252;-76
2021/12/02 06:05:22;;;;;;;0.80;0.53;;;5.90;97.20;;;;;;1714009;28;20703;-76
2021/12/02 06:06:16;;;;;;;1.13;0.70;;;5.90;97.20;;;;;;1713964;28;20216;-75
2021/12/02 06:07:08;;;;;;;1.10;0.60;;;5.90;97.20;;;;;;1714110;28;20198;-76
2021/12/02 06:08:00;;;;;;;1.10;0.70;;;5.90;97.20;;;;;;1713826;28;20237;-75
2021/12/02 06:08:52;;;;;;;2.03;0.85;;;5.80;97.20;;;;;;1714043;28;20202;-76
2021/12/02 06:09:42;;;;;;;1.00;0.60;;;5.90;97.20;;;;;;1714089;28;20228;-76
2021/12/02 06:10:34;;;;;;;0.80;0.60;;;5.90;97.20;;;;;;1713899;28;20217;-76
2021/12/02 06:11:25;;;;;;;1.50;0.60;;;5.90;97.20;;;;;;1713646;28;20209;-76
2021/12/02 06:12:17;;;;;;;1.10;0.60;;;5.90;97.20;;;;;;1713548;28;20201;-76
2021/12/02 06:13:07;;;;;;;0.70;0.50;;;5.90;97.20;;;;;;1714003;28;20445;-76
2021/12/02 06:13:59;;;;;;;0.70;0.50;;;5.90;97.20;;;;;;1713689;28;20197;-76
2021/12/02 06:14:51;;;;;;;2.17;0.60;;;5.90;97.20;;;;;;1713990;28;20202;-76
2021/12/02 06:15:44;;;;;;;1.02;0.57;;;6.00;97.20;;;;;;1714019;28;20201;-76
2021/12/02 06:16:34;;;;;;;1.20;0.50;;;5.90;97.20;;;;;;1713914;28;20212;-75
2021/12/02 06:17:26;;;;;;;0.70;0.50;;;6.00;97.20;;;;;;1714008;28;20208;-75
2021/12/02 06:18:17;;;;;;;2.72;0.57;;;6.00;97.20;;;;;;1713956;28;20260;-76
2021/12/02 06:19:09;;;;;;;1.93;0.57;;;6.00;97.20;;;;;;1713445;28;20240;-75
2021/12/02 06:20:00;;;;;;;0.80;0.60;;;5.90;97.20;;;;;;1714062;28;20264;-76
2021/12/02 06:20:54;;;;;;;1.27;0.47;;;6.00;97.20;;;;;;1713979;28;20265;-76
2021/12/02 06:21:44;;;;;;;1.00;0.60;;;6.00;97.20;;;;;;1713979;28;20237;-76
2021/12/02 06:22:36;;;;;;;1.83;0.60;;;6.00;97.20;;;;;;1713897;28;20198;-75
2021/12/02 06:23:27;;;;;;;0.70;0.60;;;6.00;97.20;;;;;;1713652;28;20208;-75
2021/12/02 06:24:20;;;;;;;0.70;0.50;;;6.00;97.20;;;;;;1713935;28;20201;-75
2021/12/02 06:26:24;;;;;;;1.02;0.80;;;6.00;97.20;;;;;;1713799;28;20298;-75
2021/12/02 06:27:15;;;;;;;1.40;0.75;;;6.00;97.20;;;;;;1713926;28;20213;-76
2021/12/02 06:28:07;;;;;;;0.90;0.70;;;6.00;97.20;;;;;;1713830;28;20197;-76
2021/12/02 06:28:58;;;;;;;2.00;0.70;;;6.00;97.20;;;;;;1713914;28;20206;-75
2021/12/02 06:29:50;;;;;;;0.73;0.60;;;6.00;97.20;;;;;;1714066;28;20198;-76
2021/12/02 06:30:41;;;;;;;1.35;0.70;;;5.90;97.20;;;;;;1709489;28;20880;-76
2021/12/02 06:31:34;;;;;;;2.38;0.90;;;6.00;97.20;;;;;;1707335;28;20256;-75
2021/12/02 06:32:24;;;;;;;0.80;0.70;;;6.00;97.20;;;;;;1707326;28;20612;-76
2021/12/02 06:33:17;;;;;;;1.97;0.80;;;5.90;97.20;;;;;;1707298;28;20549;-75
2021/12/02 06:34:07;;;;;;;1.15;0.60;;;5.90;97.20;;;;;;1707048;28;20585;-76
2021/12/02 06:34:59;;;;;;;0.70;0.60;;;5.90;97.20;;;;;;1707296;28;20568;-76
2021/12/02 06:35:50;;;;;;;0.80;0.60;;;5.90;97.20;;;;;;1707420;28;20210;-76
2021/12/02 06:36:42;;;;;;;1.20;0.65;;;5.90;97.20;;;;;;1707299;28;20237;-76
2021/12/02 06:37:33;;;;;;;0.90;0.70;;;5.90;97.20;;;;;;1707338;28;20210;-76
2021/12/02 06:38:25;;;;;;;1.55;0.70;;;6.00;97.20;;;;;;1707278;28;20198;-76
2021/12/02 06:39:15;;;;;;;2.05;0.93;;;6.10;97.20;;;;;;1707274;28;20644;-75
2021/12/02 06:40:09;;;;;;;1.50;0.80;;;6.10;97.20;;;;;;1707378;28;20195;-76
2021/12/02 06:40:59;;;;;;;1.50;1.10;;;6.10;97.20;;;;;;1707229;28;20218;-76
2021/12/02 06:41:51;;;;;;;1.87;1.40;;;6.20;97.20;;;;;;1707371;28;20281;-76
2021/12/02 06:42:42;;;;;;;3.13;2.55;;;6.20;97.20;;;;;;1707232;28;20213;-76
2021/12/02 06:43:34;;;;;;;4.80;3.53;;;6.20;97.20;;;;;;1707042;28;20203;-76
2021/12/02 06:44:24;;;;;;;4.10;3.03;;;6.20;97.20;;;;;;1707288;28;20800;-76
2021/12/02 06:45:16;;;;;;;4.07;2.60;;;6.20;97.20;;;;;;1712585;28;20895;-75
2021/12/02 06:46:07;;;;;;;3.25;2.40;;;6.10;97.20;;;;;;1713889;28;20233;-75
2021/12/02 06:47:00;;;;;;;2.93;2.57;;;6.20;97.20;;;;;;1713790;28;20198;-76
2021/12/02 06:47:53;;;;;;;2.85;2.40;;;6.20;97.20;;;;;;1713773;28;20202;-76
2021/12/02 06:48:47;;;;;;;3.58;2.75;;;6.20;97.20;;;;;;1713754;28;20280;-76
2021/12/02 06:49:38;;;;;;;2.35;1.80;;;6.10;97.20;;;;;;1713914;28;20209;-76
2021/12/02 06:50:31;;;;;;;5.85;2.80;;;6.10;97.20;;;;;;1713902;28;20208;-75
2021/12/02 06:51:22;;;;;;;3.83;2.63;;;6.10;97.20;;;;;;1713936;28;20206;-75
2021/12/02 06:52:15;;;;;;;3.77;3.00;;;6.10;97.20;;;;;;1713882;28;20260;-76
2021/12/02 06:53:06;;;;;;;3.45;2.85;;;6.10;97.20;;;;;;1713797;28;20481;-76
2021/12/02 06:53:59;;;;;;;5.25;3.38;;;6.10;97.20;;;;;;1713545;28;20216;-76
2021/12/02 06:54:50;;;;;;;3.20;2.75;;;6.10;97.20;;;;;;1713852;28;20209;-75
2021/12/02 06:55:42;;;;;;;5.10;3.17;;;6.20;97.20;;;;;;1713869;28;20668;-76
2021/12/02 06:56:33;;;;;;;2.90;2.40;;;6.20;97.20;;;;;;1713991;28;20445;-76
2021/12/02 06:57:25;;;;;;;2.10;1.90;;;6.10;97.20;;;;;;1713837;28;20201;-76
2021/12/02 06:58:15;;;;;;;1.70;1.60;;;6.10;97.20;;;;;;1713862;28;20236;-76
2021/12/02 06:59:07;;;;;;;3.10;2.30;;;6.10;97.20;;;;;;1713852;28;20205;-76
2021/12/02 07:00:02;;;;;;;2.92;2.03;;;6.10;97.20;;;;;;1713755;28;20461;-75
2021/12/02 07:00:53;;;;;;;2.72;2.00;;;6.20;97.20;;;;;;1713678;28;20577;-76
2021/12/02 07:01:45;;;;;;;3.78;2.10;;;6.20;97.20;;;;;;1713442;28;20202;-76
2021/12/02 07:02:39;;;;;;;4.03;2.67;;;6.20;97.20;;;;;;1707398;28;20205;-76
2021/12/02 07:03:30;;;;;;;3.75;2.40;;;6.20;97.20;;;;;;1706943;28;20265;-75
2021/12/02 07:04:22;;;;;;;3.85;2.47;;;6.20;97.20;;;;;;1707077;29;20217;-76
2021/12/02 07:05:15;;;;;;;2.97;2.38;;;6.10;97.20;;;;;;1707130;29;20191;-75
2021/12/02 07:06:07;;;;;;;3.40;2.15;;;6.20;97.20;;;;;;1707198;29;20238;-75
2021/12/02 07:06:58;;;;;;;1.88;1.70;;;6.20;97.20;;;;;;1707174;29;20213;-76
2021/12/02 07:07:50;;;;;;;2.17;1.97;;;6.20;97.20;;;;;;1707127;29;20205;-76
2021/12/02 07:08:41;;;;;;;1.70;1.13;;;6.20;97.20;;;;;;1710870;28;20230;-75
2021/12/02 07:09:32;;;;;;;2.43;1.30;;;6.30;97.20;;;;;;1713775;28;20202;-76
2021/12/02 07:10:25;;;;;;;1.90;1.13;;;6.30;97.20;;;;;;1713559;28;20206;-75
2021/12/02 07:11:16;;;;;;;1.55;1.10;;;6.30;97.20;;;;;;1713862;28;20637;-76
2021/12/02 07:12:08;;;;;;;1.98;1.20;;;6.30;97.20;;;;;;1714005;28;20201;-76
2021/12/02 07:13:00;;;;;;;3.22;1.23;;;6.30;97.20;;;;;;1713752;28;20657;-75
2021/12/02 07:13:54;;;;;;;1.42;1.33;;;6.30;97.20;;;;;;1713603;28;20210;-75
2021/12/02 07:14:47;;;;;;;2.00;1.38;;;6.30;97.20;;;;;;1713734;28;20576;-75
2021/12/02 07:15:42;;;;;;;2.30;1.83;;;6.30;97.20;;;;;;1713655;28;20241;-76
2021/12/02 07:16:35;;;;;;;2.20;2.00;;;6.20;97.20;;;;;;1713781;28;20201;-75
2021/12/02 07:17:26;;;;;;;2.35;1.55;;;6.20;97.20;;;;;;1713850;28;20244;-75
2021/12/02 07:18:19;;;;;;;1.38;1.27;;;6.10;97.20;;;;;;1713781;28;20210;-76
2021/12/02 07:19:11;;;;;;;1.70;1.30;;;6.10;97.20;;;;;;1713466;28;20202;-76
2021/12/02 07:20:04;;;;;;;1.30;1.13;;;6.10;97.20;;;;;;1713624;28;20256;-75
2021/12/02 07:20:55;;;;;;;1.33;1.10;;;6.10;97.20;;;;;;1710642;28;20689;-76
2021/12/02 07:21:47;;;;;;;1.50;0.90;;;6.10;97.20;;;;;;1711672;28;20905;-75
2021/12/02 07:22:37;;;;;;;1.48;0.90;;;6.10;97.20;;;;;;1710488;28;20205;-75
2021/12/02 07:23:29;;;;;;;0.90;0.70;;;6.10;97.20;;;;;;1706975;28;20782;-75
2021/12/02 07:24:23;;;;;;;1.65;0.90;;;6.10;97.20;;;;;;1710736;28;20243;-75
2021/12/02 07:25:15;;;;;;;1.45;1.25;;;6.10;97.20;;;;;;1711468;28;20207;-75
2021/12/02 07:26:06;;;;;;;2.17;1.95;;;6.10;97.20;;;;;;1710924;28;20671;-75
2021/12/02 07:26:57;;;;;;;2.45;2.05;;;6.10;97.20;;;;;;1710315;28;20245;-75
2021/12/02 07:27:49;;;;;;;2.63;1.90;;;6.10;97.20;;;;;;1711011;28;20193;-76
2021/12/02 07:28:40;;;;;;;3.85;2.55;;;6.10;97.20;;;;;;1710864;28;20595;-75
2021/12/02 07:29:32;;;;;;;2.70;2.20;;;6.20;97.20;;;;;;1714321;28;20202;-75
2021/12/02 07:30:24;;;;;;;2.15;1.95;;;6.20;97.20;;;;;;1712090;28;20265;-75
2021/12/02 07:31:15;;;;;;;3.83;3.05;;;6.20;97.20;;;;;;1710064;28;20221;-75
2021/12/02 07:32:10;;;;;;;3.73;2.83;;;6.30;97.20;;;;;;1714198;28;20194;-75
2021/12/02 07:33:04;;;;;;;4.68;4.20;;;6.30;97.20;;;;;;1713170;28;20433;-75
2021/12/02 07:33:57;;;;;;;7.47;4.55;;;6.30;97.20;;;;;;1710994;28;20708;-75
2021/12/02 07:34:50;;;;;;;5.25;3.85;;;6.30;97.20;;;;;;1714894;28;20209;-75
2021/12/02 07:35:42;;;;;;;7.78;4.72;;;6.30;97.20;;;;;;1711823;28;20685;-76
2021/12/02 07:36:35;;;;;;;7.03;5.40;;;6.30;97.20;;;;;;1714550;28;20198;-75
2021/12/02 07:37:26;;;;;;;4.57;3.80;;;6.30;97.20;;;;;;1714852;28;20206;-75
2021/12/02 07:38:19;;;;;;;4.65;3.28;;;6.30;97.20;;;;;;1714849;28;20281;-75
2021/12/02 07:39:10;;;;;;;3.47;2.60;;;6.20;97.20;;;;;;1714245;28;20210;-76
2021/12/02 07:40:02;;;;;;;3.70;3.03;;;6.20;97.20;;;;;;1714076;28;20198;-75
2021/12/02 07:40:54;;;;;;;3.47;1.83;;;6.30;97.20;;;;;;1714162;28;20222;-75
2021/12/02 07:41:45;;;;;;;2.67;1.40;;;6.30;97.20;;;;;;1714582;28;20657;-75
2021/12/02 07:42:37;;;;;;;1.30;1.20;;;6.20;97.20;;;;;;1714777;28;20284;-75
2021/12/02 07:43:30;;;;;;;1.48;1.10;;;6.20;97.20;;;;;;1714519;28;20619;-75
2021/12/02 07:44:22;;;;;;;1.80;1.10;;;6.20;97.20;;;;;;1714591;28;20245;-75
2021/12/02 07:45:16;;;;;;;1.23;1.08;;;6.20;97.20;;;;;;1714554;28;20229;-75
2021/12/02 07:46:07;;;;;;;1.58;1.10;;;6.10;97.20;;;;;;1714745;28;20206;-75
2021/12/02 07:46:59;;;;;;;1.17;0.80;;;6.10;97.20;;;;;;1714835;28;20198;-75
2021/12/02 07:47:50;;;;;;;3.47;1.20;;;6.10;97.20;;;;;;1714876;28;20217;-75
2021/12/02 07:48:42;;;;;;;2.75;1.30;;;6.10;97.20;;;;;;1714598;28;20268;-76
2021/12/02 07:49:34;;;;;;;1.50;1.40;;;6.10;97.20;;;;;;1714753;28;20232;-76
2021/12/02 07:50:27;;;;;;;1.23;1.13;;;6.10;97.20;;;;;;1714738;28;20209;-75
2021/12/02 07:51:17;;;;;;;1.30;1.05;;;6.20;97.20;;;;;;1714663;28;20307;-75
2021/12/02 07:52:10;;;;;;;1.37;1.20;;;6.20;97.20;;;;;;1714907;28;20194;-75
2021/12/02 07:53:05;;;;;;;1.20;1.10;;;6.10;97.20;;;;;;1714745;28;20521;-75
2021/12/02 07:53:58;;;;;;;1.50;1.35;;;6.10;97.20;;;;;;1714464;28;20198;-75
2021/12/02 07:54:51;;;;;;;1.50;1.25;;;6.10;97.20;;;;;;1714854;28;20206;-75
2021/12/02 07:55:43;;;;;;;1.35;1.10;;;6.10;97.20;;;;;;1714580;28;20208;-75
2021/12/02 07:56:34;;;;;;;3.75;1.90;;;6.10;97.20;;;;;;1711482;28;20202;-74
2021/12/02 07:57:26;;;;;;;1.45;1.35;;;6.10;97.20;;;;;;1714613;28;20696;-75
2021/12/02 07:58:17;;;;;;;1.35;1.25;;;6.10;97.20;;;;;;1714645;28;20677;-75
2021/12/02 07:59:09;;;;;;;1.50;1.30;;;6.00;97.20;;;;;;1714581;28;20629;-74
2021/12/02 08:00:01;;;;;;;1.65;1.27;;;6.00;97.20;;;;;;1714328;28;20910;-75
2021/12/02 08:00:57;;;;;;;1.73;1.40;;;6.00;97.20;;;;;;1713494;28;20217;-75
2021/12/02 08:01:48;;;;;;;1.63;1.50;;;6.00;97.20;;;;;;1714788;28;20611;-75
2021/12/02 08:02:43;;;;;;;2.58;1.90;;;6.00;97.20;;;;;;1714590;28;20229;-75
2021/12/02 08:03:34;;;;;;;1.50;1.17;;;6.00;97.20;;;;;;1714338;28;20217;-74
2021/12/02 08:04:25;;;;;;;2.67;1.88;;;6.00;97.20;;;;;;1714700;28;20672;-75
2021/12/02 08:05:21;;;;;;;2.00;1.60;;;6.00;97.20;;;;;;1714593;28;20574;-75
2021/12/02 08:06:13;;;;;;;1.63;1.40;;;6.00;97.20;;;;;;1714557;28;20453;-75
2021/12/02 08:07:05;;;;;;;1.38;1.27;;;6.00;97.20;;;;;;1706782;28;20195;-75
2021/12/02 08:07:56;;;;;;;3.28;1.60;;;6.00;97.20;;;;;;1707988;29;20213;-76
2021/12/02 08:08:47;;;;;;;1.88;1.45;;;6.00;97.20;;;;;;1710439;28;20208;-77
2021/12/02 08:09:39;;;;;;;1.63;1.37;;;6.00;97.20;;;;;;1714612;28;20213;-75
2021/12/02 08:10:30;;;;;;;1.70;1.60;;;6.10;97.20;;;;;;1714658;28;20213;-75
2021/12/02 08:11:22;;;;;;;3.17;1.83;;;6.10;97.20;;;;;;1714637;28;20202;-75
2021/12/02 08:12:12;;;;;;;1.80;1.60;;;6.10;97.20;;;;;;1714643;28;20441;-75
2021/12/02 08:13:04;;;;;;;1.53;1.43;;;6.10;97.20;;;;;;1714725;28;20197;-75
2021/12/02 08:13:56;;;;;;;1.60;1.50;;;6.10;97.20;;;;;;1714393;28;20304;-74
2021/12/02 08:14:49;;;;;;;1.70;1.60;;;6.20;97.20;;;;;;1714670;28;20201;-77
2021/12/02 08:15:41;;;;;;;1.63;1.42;;;6.20;97.20;;;;;;1714482;28;20597;-75
2021/12/02 08:16:33;;;;;;;1.95;1.50;;;6.20;97.20;;;;;;1714214;28;20198;-75
2021/12/02 08:17:26;;;;;;;1.35;1.25;;;6.20;97.20;;;;;;1714610;28;20205;-75
2021/12/02 08:18:17;;;;;;;2.08;1.58;;;6.20;97.20;;;;;;1713469;28;20265;-75
2021/12/02 08:19:08;;;;;;;2.50;2.15;;;6.20;97.20;;;;;;1708033;29;20233;-75
2021/12/02 08:20:00;;;;;;;2.03;1.83;;;6.20;97.20;;;;;;1707900;29;20203;-75
2021/12/02 08:20:53;;;;;;;2.15;1.95;;;6.20;97.20;;;;;;1708694;28;20219;-75
2021/12/02 08:21:45;;;;;;;1.77;1.65;;;6.20;97.20;;;;;;1710003;28;20208;-75
2021/12/02 08:22:36;;;;;;;1.85;1.70;;;6.30;97.20;;;;;;1709289;28;20689;-75
2021/12/02 08:23:28;;;;;;;1.40;1.30;;;6.30;97.20;;;;;;1707596;28;20582;-75
2021/12/02 08:24:22;;;;;;;2.00;1.80;;;6.30;97.20;;;;;;1707765;28;20296;-74
2021/12/02 08:25:15;;;;;;;2.30;1.77;;;6.40;97.20;;;;;;1712227;28;20201;-74
2021/12/02 08:26:06;;;;;;;2.22;2.00;;;6.40;97.20;;;;;;1714157;28;20197;-75
2021/12/02 08:26:57;;;;;;;1.52;1.10;;;6.40;97.20;;;;;;1711315;28;20201;-74
2021/12/02 08:27:49;;;;;;;2.10;1.45;;;6.40;97.20;;;;;;1710437;28;20198;-75
2021/12/02 08:28:41;;;;;;;2.08;1.88;;;6.40;97.20;;;;;;1711295;28;20209;-74
2021/12/02 08:29:32;;;;;;;2.65;2.35;;;6.40;97.20;;;;;;1713756;28;20224;-75
2021/12/02 08:30:26;;;;;;;3.42;2.47;;;6.40;97.20;;;;;;1714124;28;20205;-75
2021/12/02 08:31:17;;;;;;;2.47;2.28;;;6.40;97.20;;;;;;1714228;28;20210;-75
2021/12/02 08:32:09;;;;;;;2.87;1.90;;;6.40;97.20;;;;;;1714516;28;20208;-75
2021/12/02 08:33:01;;;;;;;2.03;1.60;;;6.40;97.20;;;;;;1714166;28;20815;-75
2021/12/02 08:33:54;;;;;;;2.05;1.83;;;6.40;97.20;;;;;;1713080;28;20285;-75
2021/12/02 08:34:45;;;;;;;1.88;1.70;;;6.40;97.20;;;;;;1713692;28;20202;-74
2021/12/02 08:35:37;;;;;;;2.55;1.95;;;6.40;97.20;;;;;;1714174;28;20638;-75
2021/12/02 08:36:40;;;;;;;2.17;1.98;;;6.40;97.20;;;;;;1714407;28;20216;-75
2021/12/02 08:37:35;;;;;;;2.20;1.58;;;6.40;97.20;;;;;;1714382;28;20198;-75
2021/12/02 08:38:31;;;;;;;2.00;1.65;;;6.40;97.20;;;;;;1714492;28;20291;-75
2021/12/02 08:39:25;;;;;;;1.60;1.35;;;6.40;97.20;;;;;;1714197;28;20194;-75
2021/12/02 08:40:18;;;;;;;1.60;1.50;;;6.40;97.20;;;;;;1712290;28;20206;-75
2021/12/02 08:41:12;;;;;;;2.53;2.25;;;6.40;97.20;;;;;;1711757;28;20201;-75
2021/12/02 08:42:04;;;;;;;2.50;2.20;;;6.50;97.20;;;;;;1714164;28;20206;-75
2021/12/02 08:42:56;;;;;;;3.35;2.72;;;6.50;97.20;;;;;;1714294;28;20212;-75
2021/12/02 08:43:47;;;;;;;4.13;3.20;;;6.50;97.20;;;;;;1712847;28;20227;-74
2021/12/02 08:44:40;;;;;;;2.78;2.47;;;6.50;97.20;;;;;;1712915;28;20648;-75
2021/12/02 08:45:32;;;;;;;2.60;2.00;;;6.50;97.20;;;;;;1714371;28;20210;-74
2021/12/02 08:46:27;;;;;;;3.85;2.50;;;6.50;97.20;;;;;;1714440;28;20229;-74
2021/12/02 08:47:20;;;;;;;3.13;2.53;;;6.50;97.20;;;;;;1714427;28;20232;-75
2021/12/02 08:48:12;;;;;;;4.38;3.00;;;6.50;97.20;;;;;;1714380;28;20937;-75
2021/12/02 08:49:04;;;;;;;4.80;3.05;;;6.50;97.20;;;;;;1714383;28;20198;-75
2021/12/02 08:49:57;;;;;;;2.65;2.38;;;6.50;97.20;;;;;;1714359;28;20202;-75
2021/12/02 08:50:48;;;;;;;4.00;2.58;;;6.50;97.20;;;;;;1713935;28;20713;-75
2021/12/02 08:51:41;;;;;;;3.00;1.60;;;6.50;97.20;;;;;;1714137;28;20616;-75
2021/12/02 08:52:32;;;;;;;2.45;2.10;;;6.50;97.20;;;;;;1711964;28;20480;-75
2021/12/02 08:53:24;;;;;;;3.20;2.17;;;6.50;97.20;;;;;;1713894;28;20190;-75
2021/12/02 08:54:15;;;;;;;3.42;2.50;;;6.50;97.20;;;;;;1714004;28;20536;-75
2021/12/02 08:55:08;;;;;;;3.60;2.28;;;6.50;97.20;;;;;;1714305;28;20204;-75
2021/12/02 08:55:59;;;;;;;3.20;2.00;;;6.50;97.20;;;;;;1709599;28;20206;-75
2021/12/02 08:56:50;;;;;;;2.60;1.90;;;6.50;97.20;;;;;;1707780;28;20208;-75
2021/12/02 08:57:41;;;;;;;2.95;2.20;;;6.50;97.20;;;;;;1707793;28;20579;-74
2021/12/02 08:58:35;;;;;;;3.87;3.27;;;6.50;97.20;;;;;;1707739;28;20587;-75
2021/12/02 08:59:26;;;;;;;3.78;2.50;;;6.40;97.20;;;;;;1707743;28;20953;-74
2021/12/02 09:00:21;;;;;;;3.10;2.30;;;6.40;97.20;;;;;;1707514;28;20680;-74
2021/12/02 09:01:12;;;;;;;3.13;2.80;;;6.40;97.20;;;;;;1707757;28;20255;-74
2021/12/02 09:02:04;;;;;;;3.53;2.40;;;6.40;97.20;;;;;;1712523;28;20190;-74
2021/12/02 09:02:55;;;;;;;2.47;1.90;;;6.40;97.20;;;;;;1714256;28;20452;-75
2021/12/02 09:03:47;;;;;;;2.27;2.07;;;6.40;97.20;;;;;;1714072;28;20208;-75
2021/12/02 09:04:38;;;;;;;3.88;1.65;;;6.40;97.20;;;;;;1714185;28;20209;-75
2021/12/02 09:05:30;;;;;;;2.33;1.60;;;6.40;97.20;;;;;;1712353;28;20208;-75
2021/12/02 09:06:22;;;;;;;1.40;1.30;;;6.40;97.20;;;;;;1713511;28;20233;-75
2021/12/02 09:07:15;;;;;;;2.63;1.90;;;6.40;97.20;;;;;;1714127;28;20217;-74
2021/12/02 09:08:06;;;;;;;3.08;2.88;;;6.40;97.20;;;;;;1714182;28;20737;-74
2021/12/02 09:08:59;;;;;;;2.50;2.10;;;6.40;97.20;;;;;;1714228;28;20631;-74
2021/12/02 09:09:50;;;;;;;2.10;1.90;;;6.40;97.20;;;;;;1711110;28;20489;-74
2021/12/02 09:10:41;;;;;;;2.27;2.07;;;6.40;97.20;;;;;;1713533;28;20253;-74
2021/12/02 09:11:33;;;;;;;2.75;2.28;;;6.50;97.20;;;;;;1714264;28;20197;-74
2021/12/02 09:12:25;;;;;;;3.50;2.20;;;6.50;97.20;;;;;;1714333;28;20697;-75
2021/12/02 09:13:16;;;;;;;1.70;1.60;;;6.60;97.20;;;;;;1714162;28;20206;-74
2021/12/02 09:14:08;;;;;;;2.72;1.80;;;6.60;97.20;;;;;;1714004;28;20204;-74
2021/12/02 09:14:59;;;;;;;2.20;2.00;;;6.70;97.20;;;;;;1714090;28;20206;-74
2021/12/02 09:15:51;;;;;;;3.00;2.80;;;6.70;97.20;;;;;;1714109;28;20300;-74
2021/12/02 09:16:42;;;;;;;2.50;2.30;;;6.80;97.20;;;;;;1714206;28;20205;-74
2021/12/02 09:17:33;;;;;;;3.65;2.92;;;6.80;97.20;;;;;;1710877;28;20228;-74
2021/12/02 09:18:26;;;;;;;5.00;4.10;;;6.80;97.20;;;;;;1711860;28;20208;-75
2021/12/02 09:19:18;;;;;;;7.93;6.07;;;6.80;97.20;;;;;;1711334;28;20213;-74
2021/12/02 09:20:11;;;;;;;7.30;5.72;;;6.90;97.20;;;;;;1708275;28;20198;-74
2021/12/02 09:21:03;;;;;;;3.95;3.28;;;6.90;97.20;;;;;;1714188;28;20572;-74
2021/12/02 09:21:54;;;;;;;4.20;3.30;;;6.90;97.20;;;;;;1714062;28;20245;-74
2021/12/02 09:22:47;;;;;;;2.67;2.10;;;6.90;97.20;;;;;;1714168;28;20205;-74
2021/12/02 09:23:38;;;;;;;2.30;2.10;;;6.90;97.20;;;;;;1713833;28;20936;-74
2021/12/02 09:24:30;;;;;;;1.67;1.53;;;6.80;97.20;;;;;;1713100;28;20550;-74
2021/12/02 09:25:22;;;;;;;1.42;1.30;;;6.90;97.20;;;;;;1714057;28;20209;-74
2021/12/02 09:26:14;;;;;;;1.35;1.25;;;6.90;97.20;;;;;;1714279;28;20289;-75
2021/12/02 09:27:05;;;;;;;2.00;1.30;;;6.90;97.20;;;;;;1713947;28;20201;-75
2021/12/02 09:27:56;;;;;;;2.53;1.67;;;6.90;97.20;;;;;;1714161;28;20202;-74
2021/12/02 09:28:52;;;;;;;1.77;1.23;;;6.90;97.20;;;;;;1713912;28;20228;-74
2021/12/02 09:29:44;;;;;;;1.70;1.10;;;6.80;97.20;;;;;;1714149;28;20261;-74
2021/12/02 09:30:35;;;;;;;2.03;1.60;;;6.80;97.20;;;;;;1714067;28;20221;-74
2021/12/02 09:31:27;;;;;;;1.40;1.30;;;6.80;97.20;;;;;;1714153;28;20258;-74
2021/12/02 09:32:18;;;;;;;1.65;1.38;;;6.80;97.20;;;;;;1714144;28;20229;-74
2021/12/02 09:33:10;;;;;;;1.65;1.00;;;6.80;97.20;;;;;;1714187;28;20201;-74
2021/12/02 09:34:00;;;;;;;1.48;1.38;;;6.80;97.20;;;;;;1713927;28;20673;-74
2021/12/02 09:34:53;;;;;;;2.50;1.30;;;6.80;97.20;;;;;;1711082;28;20545;-74
2021/12/02 09:35:44;;;;;;;2.17;1.17;;;6.80;97.20;;;;;;1707369;29;20264;-74
2021/12/02 09:36:36;;;;;;;3.05;1.00;;;6.80;97.20;;;;;;1709065;28;20214;-74
2021/12/02 09:37:27;;;;;;;1.20;1.10;;;6.80;97.20;;;;;;1713344;28;20206;-74
2021/12/02 09:38:21;;;;;;;1.42;1.17;;;6.80;97.20;;;;;;1710356;28;20251;-74
2021/12/02 09:39:13;;;;;;;2.50;1.30;;;6.80;97.20;;;;;;1714015;28;20225;-74
2021/12/02 09:40:09;;;;;;;2.42;1.13;;;6.80;97.20;;;;;;1713684;28;20194;-75
2021/12/02 09:41:01;;;;;;;1.20;0.90;;;6.70;97.20;;;;;;1708617;28;20222;-73
2021/12/02 09:41:53;;;;;;;2.30;1.10;;;6.80;97.20;;;;;;1707532;29;20203;-74
2021/12/02 09:42:44;;;;;;;1.15;1.05;;;6.80;97.20;;;;;;1707398;29;20206;-74
2021/12/02 09:43:36;;;;;;;1.48;1.10;;;6.80;97.20;;;;;;1707099;29;20210;-73
2021/12/02 09:44:28;;;;;;;2.35;1.20;;;6.90;97.20;;;;;;1707207;29;20211;-74
2021/12/02 09:45:20;;;;;;;1.30;1.10;;;6.90;97.20;;;;;;1712949;28;20202;-74
2021/12/02 09:46:11;;;;;;;2.75;1.30;;;6.90;97.20;;;;;;1713906;28;20216;-75
2021/12/02 09:47:03;;;;;;;1.10;1.00;;;6.90;97.20;;;;;;1714101;28;20202;-74
2021/12/02 09:47:54;;;;;;;1.55;1.17;;;6.90;97.20;;;;;;1714001;28;20202;-74
2021/12/02 09:48:47;;;;;;;1.55;1.45;;;7.00;97.20;;;;;;1714000;28;20201;-74
2021/12/02 09:49:39;;;;;;;1.15;1.05;;;7.00;97.20;;;;;;1713887;28;20214;-74
2021/12/02 09:50:33;;;;;;;1.70;1.00;;;7.00;97.20;;;;;;1714020;28;20292;-74
2021/12/02 09:51:25;;;;;;;3.20;1.05;;;7.00;97.20;;;;;;1713653;28;20213;-74
2021/12/02 09:52:19;;;;;;;2.10;1.20;;;7.00;97.20;;;;;;1713830;28;20642;-74
2021/12/02 09:53:14;;;;;;;1.42;1.00;;;7.00;97.20;;;;;;1713683;28;20680;-74
2021/12/02 09:54:11;;;;;;;1.30;1.20;;;7.00;97.20;;;;;;1707076;28;20194;-74
2021/12/02 09:55:07;;;;;;;4.28;1.48;;;7.00;97.20;;;;;;1707369;29;20214;-74
2021/12/02 09:56:10;;;;;;;2.20;1.10;;;7.00;97.20;;;;;;1712105;28;20197;-74
2021/12/02 09:57:04;;;;;;;1.88;1.20;;;7.00;97.20;;;;;;1714008;28;20202;-74
2021/12/02 09:57:56;;;;;;;1.50;1.15;;;7.00;97.20;;;;;;1714048;28;20210;-74
2021/12/02 09:58:50;;;;;;;1.80;1.05;;;6.90;97.20;;;;;;1714091;28;20194;-74
2021/12/02 09:59:49;;;;;;;1.40;1.30;;;7.00;97.20;;;;;;1713935;28;20210;-74
2021/12/02 10:00:43;;;;;;;1.23;1.10;;;7.00;97.20;;;;;;1713164;28;20302;-74
2021/12/02 10:01:40;;;;;;;1.33;1.23;;;7.00;97.20;;;;;;1707251;28;20242;-74
2021/12/02 10:02:38;;;;;;;1.30;1.20;;;7.00;97.20;;;;;;1707329;29;20214;-74
2021/12/02 10:03:31;;;;;;;1.58;1.10;;;7.00;97.20;;;;;;1707164;28;20206;-74
2021/12/02 10:04:24;;;;;;;1.75;1.30;;;7.00;97.20;;;;;;1707310;29;20261;-74
2021/12/02 10:05:27;;;;;;;0.93;0.90;;;7.00;97.20;;;;;;1707153;29;20211;-74
2021/12/02 10:06:23;;;;;;;2.75;1.20;;;7.00;97.20;;;;;;1707308;29;20215;-75
2021/12/02 10:07:18;;;;;;;1.60;1.15;;;6.90;97.20;;;;;;1708740;28;20260;-74
2021/12/02 10:08:17;;;;;;;1.67;1.25;;;6.90;97.20;;;;;;1707220;28;20229;-74
2021/12/02 10:09:14;;;;;;;1.25;1.00;;;6.90;97.20;;;;;;1707414;29;20203;-75
2021/12/02 10:10:11;;;;;;;1.17;1.08;;;6.90;97.20;;;;;;1709800;28;20233;-75
2021/12/02 10:11:05;;;;;;;2.20;1.17;;;6.90;97.20;;;;;;1713924;28;20217;-74
2021/12/02 10:12:12;;;;;;;2.28;1.10;;;6.90;97.20;;;;;;1713883;28;20202;-74
2021/12/02 10:13:11;;;;;;;1.10;1.00;;;6.90;97.20;;;;;;1713871;28;20209;-74
2021/12/02 10:14:15;;;;;;;1.00;0.90;;;6.90;97.20;;;;;;1713236;28;20193;-74
2021/12/02 10:15:12;;;;;;;1.88;1.08;;;6.90;97.20;;;;;;1712917;28;20290;-74
2021/12/02 10:16:20;;;;;;;1.52;0.93;;;6.90;97.20;;;;;;1713169;28;20194;-74
2021/12/02 10:17:15;;;;;;;1.55;0.82;;;6.90;97.20;;;;;;1713898;28;20213;-75
2021/12/02 10:18:10;;;;;;;1.30;0.88;;;6.90;97.20;;;;;;1713975;28;20210;-75
2021/12/02 10:19:05;;;;;;;1.00;0.90;;;6.90;97.20;;;;;;1707151;29;20678;-75
2021/12/02 10:20:11;;;;;;;1.50;0.90;;;6.90;97.20;;;;;;1707270;29;20210;-75
2021/12/02 10:21:16;;;;;;;1.20;1.10;;;6.90;97.20;;;;;;1707096;29;20839;-75
2021/12/02 10:22:12;;;;;;;1.20;1.02;;;6.90;97.20;;;;;;1706978;29;20202;-75
2021/12/02 10:23:10;;;;;;;1.23;0.90;;;6.90;97.20;;;;;;1706544;29;20202;-75
2021/12/02 10:24:08;;;;;;;0.90;0.80;;;6.90;97.20;;;;;;1706435;29;20209;-75
2021/12/02 10:25:00;;;;;;;1.00;0.80;;;6.90;97.20;;;;;;1707114;29;20206;-75
2021/12/02 10:25:55;;;;;;;1.55;1.00;;;6.80;97.20;;;;;;1707224;28;20297;-75
2021/12/02 10:26:51;;;;;;;1.75;0.90;;;6.90;97.20;;;;;;1709837;28;20221;-75
2021/12/02 10:28:03;;;;;;;1.08;0.98;;;6.90;97.20;;;;;;1710865;28;20193;-75
2021/12/02 10:28:55;;;;;;;2.55;0.93;;;6.90;97.20;;;;;;1711204;28;20194;-75
2021/12/02 10:29:47;;;;;;;1.40;1.00;;;6.90;97.20;;;;;;1713605;28;20723;-75
2021/12/02 10:30:41;;;;;;;2.17;1.00;;;7.00;97.20;;;;;;1713535;28;20257;-75
2021/12/02 10:31:32;;;;;;;1.42;1.20;;;7.00;97.20;;;;;;1713628;28;20209;-75
2021/12/02 10:32:26;;;;;;;1.30;1.20;;;7.00;97.20;;;;;;1713700;28;20208;-75
2021/12/02 10:33:29;;;;;;;3.70;1.30;;;7.00;97.20;;;;;;1713830;28;20643;-74
2021/12/02 10:34:21;;;;;;;1.25;1.15;;;7.00;97.20;;;;;;1713561;28;20737;-75
2021/12/02 10:35:13;;;;;;;1.70;1.05;;;7.00;97.20;;;;;;1713350;28;20253;-75
2021/12/02 10:36:07;;;;;;;1.50;1.08;;;7.00;97.20;;;;;;1713304;28;20726;-75
2021/12/02 10:37:10;;;;;;;1.95;1.60;;;7.00;97.20;;;;;;1713693;28;20213;-75
2021/12/02 10:38:01;;;;;;;1.40;1.13;;;7.00;97.20;;;;;;1713824;28;20669;-75
2021/12/02 10:38:54;;;;;;;3.57;1.73;;;7.00;97.20;;;;;;1713747;28;20727;-75
2021/12/02 10:39:56;;;;;;;1.33;1.15;;;7.00;97.20;;;;;;1713745;28;20736;-74